sensor_id;sensor_type;location;lat;lon;timestamp;P1;durP1;ratioP1;P2;durP2;ratioP2
9972;SDS011;5027;53.560;10.062;2022-12-07T00:01:07;9.40;;;8.50;;
9972;SDS011;5027;53.560;10.062;2022-12-07T00:03:37;10.17;;;9.10;;
9972;SDS011;5027;53.560;10.062;2022-12-07T00:06:05;9.27;;;8.27;;
9972;SDS011;5027;53.560;10.062;2022-12-07T00:08:33;9.40;;;8.40;;
9972;SDS011;5027;53.560;10.062;2022-12-07T00:11:01;9.30;;;8.10;;
9972;SDS011;5027;53.560;10.062;2022-12-07T00:13:33;8.97;;;8.13;;
9972;SDS011;5027;53.560;10.062;2022-12-07T00:16:05;12.57;;;8.00;;
9972;SDS011;5027;53.560;10.062;2022-12-07T00:18:33;8.60;;;7.80;;
9972;SDS011;5027;53.560;10.062;2022-12-07T00:21:01;9.87;;;8.43;;
9972;SDS011;5027;53.560;10.062;2022-12-07T00:23:29;9.13;;;8.17;;
9972;SDS011;5027;53.560;10.062;2022-12-07T00:25:56;9.07;;;8.27;;
9972;SDS011;5027;53.560;10.062;2022-12-07T00:28:28;9.83;;;8.17;;
9972;SDS011;5027;53.560;10.062;2022-12-07T00:31:02;8.80;;;7.90;;
9972;SDS011;5027;53.560;10.062;2022-12-07T00:33:33;9.27;;;8.10;;
9972;SDS011;5027;53.560;10.062;2022-12-07T00:36:01;10.57;;;8.00;;
9972;SDS011;5027;53.560;10.062;2022-12-07T00:38:30;9.73;;;8.07;;
9972;SDS011;5027;53.560;10.062;2022-12-07T00:41:00;10.57;;;8.37;;
9972;SDS011;5027;53.560;10.062;2022-12-07T00:43:29;9.03;;;8.13;;
9972;SDS011;5027;53.560;10.062;2022-12-07T00:45:56;9.67;;;7.83;;
9972;SDS011;5027;53.560;10.062;2022-12-07T00:48:23;8.87;;;8.00;;
9972;SDS011;5027;53.560;10.062;2022-12-07T00:50:51;10.60;;;8.07;;
9972;SDS011;5027;53.560;10.062;2022-12-07T00:53:18;9.30;;;8.40;;
9972;SDS011;5027;53.560;10.062;2022-12-07T00:55:45;9.03;;;7.83;;
9972;SDS011;5027;53.560;10.062;2022-12-07T00:58:12;10.97;;;7.50;;
9972;SDS011;5027;53.560;10.062;2022-12-07T01:00:39;8.43;;;7.27;;
9972;SDS011;5027;53.560;10.062;2022-12-07T01:03:08;7.73;;;6.97;;
9972;SDS011;5027;53.560;10.062;2022-12-07T01:05:36;4.77;;;4.33;;
9972;SDS011;5027;53.560;10.062;2022-12-07T01:08:03;8.37;;;7.47;;
9972;SDS011;5027;53.560;10.062;2022-12-07T01:10:31;7.90;;;7.10;;
9972;SDS011;5027;53.560;10.062;2022-12-07T01:12:58;9.07;;;7.30;;
9972;SDS011;5027;53.560;10.062;2022-12-07T01:15:25;8.67;;;7.77;;
9972;SDS011;5027;53.560;10.062;2022-12-07T01:17:52;8.67;;;7.37;;
9972;SDS011;5027;53.560;10.062;2022-12-07T01:20:20;7.87;;;6.80;;
9972;SDS011;5027;53.560;10.062;2022-12-07T01:22:47;9.13;;;6.87;;
9972;SDS011;5027;53.560;10.062;2022-12-07T01:25:14;7.57;;;6.77;;
9972;SDS011;5027;53.560;10.062;2022-12-07T01:27:41;9.00;;;7.00;;
9972;SDS011;5027;53.560;10.062;2022-12-07T01:30:10;8.27;;;7.27;;
9972;SDS011;5027;53.560;10.062;2022-12-07T01:32:37;8.17;;;6.77;;
9972;SDS011;5027;53.560;10.062;2022-12-07T01:35:04;5.67;;;5.10;;
9972;SDS011;5027;53.560;10.062;2022-12-07T01:37:37;7.23;;;6.63;;
9972;SDS011;5027;53.560;10.062;2022-12-07T01:40:06;6.90;;;6.20;;
9972;SDS011;5027;53.560;10.062;2022-12-07T01:42:34;7.80;;;7.00;;
9972;SDS011;5027;53.560;10.062;2022-12-07T01:48:06;10.33;;;6.70;;
9972;SDS011;5027;53.560;10.062;2022-12-07T01:50:39;9.73;;;7.30;;
9972;SDS011;5027;53.560;10.062;2022-12-07T01:53:08;10.67;;;7.17;;
9972;SDS011;5027;53.560;10.062;2022-12-07T01:55:37;9.40;;;7.50;;
9972;SDS011;5027;53.560;10.062;2022-12-07T01:58:07;9.03;;;6.90;;
9972;SDS011;5027;53.560;10.062;2022-12-07T02:00:35;7.93;;;6.80;;
9972;SDS011;5027;53.560;10.062;2022-12-07T02:05:35;9.10;;;6.60;;
9972;SDS011;5027;53.560;10.062;2022-12-07T02:08:04;8.27;;;6.53;;
9972;SDS011;5027;53.560;10.062;2022-12-07T02:10:32;8.70;;;6.53;;
9972;SDS011;5027;53.560;10.062;2022-12-07T02:13:06;7.13;;;6.43;;
9972;SDS011;5027;53.560;10.062;2022-12-07T02:15:46;8.97;;;6.20;;
9972;SDS011;5027;53.560;10.062;2022-12-07T02:18:32;6.83;;;6.00;;
9972;SDS011;5027;53.560;10.062;2022-12-07T02:21:23;6.80;;;5.93;;
9972;SDS011;5027;53.560;10.062;2022-12-07T02:24:31;8.53;;;6.00;;
9972;SDS011;5027;53.560;10.062;2022-12-07T02:27:22;7.90;;;5.70;;
9972;SDS011;5027;53.560;10.062;2022-12-07T02:32:43;5.60;;;5.00;;
9972;SDS011;5027;53.560;10.062;2022-12-07T02:40:43;5.97;;;5.20;;
9972;SDS011;5027;53.560;10.062;2022-12-07T02:43:52;6.10;;;4.87;;
9972;SDS011;5027;53.560;10.062;2022-12-07T02:46:25;5.93;;;4.50;;
9972;SDS011;5027;53.560;10.062;2022-12-07T02:48:56;5.20;;;4.30;;
9972;SDS011;5027;53.560;10.062;2022-12-07T02:51:25;6.50;;;4.40;;
9972;SDS011;5027;53.560;10.062;2022-12-07T02:53:55;6.17;;;3.70;;
9972;SDS011;5027;53.560;10.062;2022-12-07T02:56:26;5.83;;;3.63;;
9972;SDS011;5027;53.560;10.062;2022-12-07T02:59:10;7.20;;;3.20;;
9972;SDS011;5027;53.560;10.062;2022-12-07T03:07:21;5.57;;;2.80;;
9972;SDS011;5027;53.560;10.062;2022-12-07T03:10:11;3.77;;;2.80;;
9972;SDS011;5027;53.560;10.062;2022-12-07T03:15:36;6.40;;;2.87;;
9972;SDS011;5027;53.560;10.062;2022-12-07T03:18:08;4.47;;;2.80;;
9972;SDS011;5027;53.560;10.062;2022-12-07T03:20:39;5.17;;;2.80;;
9972;SDS011;5027;53.560;10.062;2022-12-07T03:23:08;6.03;;;2.77;;
9972;SDS011;5027;53.560;10.062;2022-12-07T03:25:39;3.87;;;2.30;;
9972;SDS011;5027;53.560;10.062;2022-12-07T03:28:11;4.57;;;2.50;;
9972;SDS011;5027;53.560;10.062;2022-12-07T03:30:42;4.30;;;2.07;;
9972;SDS011;5027;53.560;10.062;2022-12-07T03:33:22;4.37;;;2.13;;
9972;SDS011;5027;53.560;10.062;2022-12-07T03:35:58;2.93;;;1.90;;
9972;SDS011;5027;53.560;10.062;2022-12-07T03:38:31;4.80;;;2.00;;
9972;SDS011;5027;53.560;10.062;2022-12-07T03:41:16;3.13;;;2.30;;
9972;SDS011;5027;53.560;10.062;2022-12-07T03:43:46;4.50;;;1.90;;
9972;SDS011;5027;53.560;10.062;2022-12-07T03:46:21;3.77;;;1.80;;
9972;SDS011;5027;53.560;10.062;2022-12-07T03:52:00;2.10;;;1.40;;
9972;SDS011;5027;53.560;10.062;2022-12-07T03:54:37;2.60;;;1.63;;
9972;SDS011;5027;53.560;10.062;2022-12-07T03:57:09;2.03;;;1.40;;
9972;SDS011;5027;53.560;10.062;2022-12-07T03:59:38;3.60;;;1.50;;
9972;SDS011;5027;53.560;10.062;2022-12-07T04:02:06;2.47;;;1.70;;
9972;SDS011;5027;53.560;10.062;2022-12-07T04:04:33;2.77;;;1.50;;
9972;SDS011;5027;53.560;10.062;2022-12-07T04:07:00;1.63;;;1.50;;
9972;SDS011;5027;53.560;10.062;2022-12-07T04:09:27;3.60;;;2.07;;
9972;SDS011;5027;53.560;10.062;2022-12-07T04:11:54;4.17;;;1.90;;
9972;SDS011;5027;53.560;10.062;2022-12-07T04:14:20;2.20;;;1.40;;
9972;SDS011;5027;53.560;10.062;2022-12-07T04:16:48;3.37;;;1.87;;
9972;SDS011;5027;53.560;10.062;2022-12-07T04:19:16;4.27;;;1.77;;
9972;SDS011;5027;53.560;10.062;2022-12-07T04:21:44;3.37;;;1.73;;
9972;SDS011;5027;53.560;10.062;2022-12-07T04:24:13;4.63;;;2.10;;
9972;SDS011;5027;53.560;10.062;2022-12-07T04:26:41;2.83;;;1.63;;
9972;SDS011;5027;53.560;10.062;2022-12-07T04:29:08;5.33;;;1.57;;
9972;SDS011;5027;53.560;10.062;2022-12-07T04:31:35;4.70;;;1.80;;
9972;SDS011;5027;53.560;10.062;2022-12-07T04:34:03;3.20;;;1.80;;
9972;SDS011;5027;53.560;10.062;2022-12-07T04:36:30;2.17;;;1.60;;
9972;SDS011;5027;53.560;10.062;2022-12-07T04:38:58;4.73;;;2.03;;
9972;SDS011;5027;53.560;10.062;2022-12-07T04:41:25;3.70;;;2.10;;
9972;SDS011;5027;53.560;10.062;2022-12-07T04:43:59;4.53;;;1.90;;
9972;SDS011;5027;53.560;10.062;2022-12-07T04:46:29;2.87;;;1.97;;
9972;SDS011;5027;53.560;10.062;2022-12-07T04:48:57;3.70;;;2.07;;
9972;SDS011;5027;53.560;10.062;2022-12-07T04:51:25;3.07;;;1.97;;
9972;SDS011;5027;53.560;10.062;2022-12-07T04:53:53;2.77;;;1.97;;
9972;SDS011;5027;53.560;10.062;2022-12-07T04:56:21;3.87;;;2.30;;
9972;SDS011;5027;53.560;10.062;2022-12-07T04:58:49;3.47;;;2.20;;
9972;SDS011;5027;53.560;10.062;2022-12-07T05:01:17;3.43;;;2.07;;
9972;SDS011;5027;53.560;10.062;2022-12-07T05:03:44;3.07;;;2.10;;
9972;SDS011;5027;53.560;10.062;2022-12-07T05:06:11;4.60;;;1.80;;
9972;SDS011;5027;53.560;10.062;2022-12-07T05:08:39;5.77;;;2.10;;
9972;SDS011;5027;53.560;10.062;2022-12-07T05:11:06;4.17;;;1.97;;
9972;SDS011;5027;53.560;10.062;2022-12-07T05:13:34;3.33;;;2.30;;
9972;SDS011;5027;53.560;10.062;2022-12-07T05:16:01;4.00;;;2.23;;
9972;SDS011;5027;53.560;10.062;2022-12-07T05:18:28;4.23;;;2.37;;
9972;SDS011;5027;53.560;10.062;2022-12-07T05:20:55;2.93;;;2.27;;
9972;SDS011;5027;53.560;10.062;2022-12-07T05:23:22;4.30;;;2.60;;
9972;SDS011;5027;53.560;10.062;2022-12-07T05:25:48;3.57;;;2.17;;
9972;SDS011;5027;53.560;10.062;2022-12-07T05:28:15;4.63;;;2.20;;
9972;SDS011;5027;53.560;10.062;2022-12-07T05:30:42;2.67;;;2.10;;
9972;SDS011;5027;53.560;10.062;2022-12-07T05:33:09;6.13;;;2.43;;
9972;SDS011;5027;53.560;10.062;2022-12-07T05:35:35;2.40;;;2.13;;
9972;SDS011;5027;53.560;10.062;2022-12-07T05:38:03;5.03;;;2.20;;
9972;SDS011;5027;53.560;10.062;2022-12-07T05:40:30;3.10;;;1.93;;
9972;SDS011;5027;53.560;10.062;2022-12-07T05:42:57;3.67;;;2.33;;
9972;SDS011;5027;53.560;10.062;2022-12-07T05:45:29;3.07;;;2.43;;
9972;SDS011;5027;53.560;10.062;2022-12-07T05:47:56;8.00;;;2.50;;
9972;SDS011;5027;53.560;10.062;2022-12-07T05:50:23;4.03;;;2.50;;
9972;SDS011;5027;53.560;10.062;2022-12-07T05:52:59;4.13;;;2.57;;
9972;SDS011;5027;53.560;10.062;2022-12-07T05:55:26;2.97;;;2.37;;
9972;SDS011;5027;53.560;10.062;2022-12-07T05:57:52;3.63;;;2.30;;
9972;SDS011;5027;53.560;10.062;2022-12-07T06:00:37;3.97;;;2.40;;
9972;SDS011;5027;53.560;10.062;2022-12-07T06:03:04;3.40;;;2.57;;
9972;SDS011;5027;53.560;10.062;2022-12-07T06:05:31;3.53;;;2.57;;
9972;SDS011;5027;53.560;10.062;2022-12-07T06:07:57;4.47;;;2.83;;
9972;SDS011;5027;53.560;10.062;2022-12-07T06:10:31;4.97;;;2.43;;
9972;SDS011;5027;53.560;10.062;2022-12-07T06:12:57;6.70;;;2.70;;
9972;SDS011;5027;53.560;10.062;2022-12-07T06:15:24;4.90;;;2.63;;
9972;SDS011;5027;53.560;10.062;2022-12-07T06:17:50;3.90;;;2.57;;
9972;SDS011;5027;53.560;10.062;2022-12-07T06:20:17;4.50;;;2.60;;
9972;SDS011;5027;53.560;10.062;2022-12-07T06:22:44;4.30;;;2.73;;
9972;SDS011;5027;53.560;10.062;2022-12-07T06:25:10;4.50;;;2.57;;
9972;SDS011;5027;53.560;10.062;2022-12-07T06:27:37;4.87;;;2.33;;
9972;SDS011;5027;53.560;10.062;2022-12-07T06:30:04;4.20;;;2.47;;
9972;SDS011;5027;53.560;10.062;2022-12-07T06:32:33;3.87;;;2.43;;
9972;SDS011;5027;53.560;10.062;2022-12-07T06:34:59;2.93;;;1.97;;
9972;SDS011;5027;53.560;10.062;2022-12-07T06:37:26;4.97;;;2.30;;
9972;SDS011;5027;53.560;10.062;2022-12-07T06:39:53;6.53;;;2.70;;
9972;SDS011;5027;53.560;10.062;2022-12-07T06:42:20;2.63;;;2.00;;
9972;SDS011;5027;53.560;10.062;2022-12-07T06:44:47;4.23;;;2.80;;
9972;SDS011;5027;53.560;10.062;2022-12-07T06:47:13;4.63;;;2.40;;
9972;SDS011;5027;53.560;10.062;2022-12-07T06:50:01;2.63;;;2.10;;
9972;SDS011;5027;53.560;10.062;2022-12-07T06:52:29;5.67;;;2.20;;
9972;SDS011;5027;53.560;10.062;2022-12-07T06:54:56;5.90;;;2.73;;
9972;SDS011;5027;53.560;10.062;2022-12-07T06:57:23;4.37;;;2.30;;
9972;SDS011;5027;53.560;10.062;2022-12-07T06:59:50;2.63;;;2.17;;
9972;SDS011;5027;53.560;10.062;2022-12-07T07:02:16;5.80;;;2.50;;
9972;SDS011;5027;53.560;10.062;2022-12-07T07:04:43;3.13;;;2.07;;
9972;SDS011;5027;53.560;10.062;2022-12-07T07:07:10;4.63;;;2.30;;
9972;SDS011;5027;53.560;10.062;2022-12-07T07:09:36;5.90;;;2.37;;
9972;SDS011;5027;53.560;10.062;2022-12-07T07:12:03;3.67;;;2.23;;
9972;SDS011;5027;53.560;10.062;2022-12-07T07:14:30;4.00;;;2.13;;
9972;SDS011;5027;53.560;10.062;2022-12-07T07:16:56;4.27;;;2.10;;
9972;SDS011;5027;53.560;10.062;2022-12-07T07:19:23;3.57;;;1.77;;
9972;SDS011;5027;53.560;10.062;2022-12-07T07:21:49;4.30;;;2.30;;
9972;SDS011;5027;53.560;10.062;2022-12-07T07:24:16;5.90;;;2.23;;
9972;SDS011;5027;53.560;10.062;2022-12-07T07:26:43;4.63;;;1.90;;
9972;SDS011;5027;53.560;10.062;2022-12-07T07:29:09;11.87;;;7.77;;
9972;SDS011;5027;53.560;10.062;2022-12-07T07:31:36;5.83;;;3.13;;
9972;SDS011;5027;53.560;10.062;2022-12-07T07:34:03;3.13;;;1.93;;
9972;SDS011;5027;53.560;10.062;2022-12-07T07:36:30;3.10;;;1.90;;
9972;SDS011;5027;53.560;10.062;2022-12-07T07:38:57;2.47;;;1.67;;
9972;SDS011;5027;53.560;10.062;2022-12-07T07:41:24;7.07;;;2.17;;
9972;SDS011;5027;53.560;10.062;2022-12-07T07:43:50;3.73;;;2.00;;
9972;SDS011;5027;53.560;10.062;2022-12-07T07:46:17;5.63;;;1.60;;
9972;SDS011;5027;53.560;10.062;2022-12-07T07:48:44;7.57;;;4.63;;
9972;SDS011;5027;53.560;10.062;2022-12-07T07:51:10;4.80;;;1.77;;
9972;SDS011;5027;53.560;10.062;2022-12-07T07:53:37;4.57;;;1.90;;
9972;SDS011;5027;53.560;10.062;2022-12-07T07:56:03;4.73;;;1.60;;
9972;SDS011;5027;53.560;10.062;2022-12-07T07:58:30;3.03;;;1.70;;
9972;SDS011;5027;53.560;10.062;2022-12-07T08:00:57;4.17;;;1.80;;
9972;SDS011;5027;53.560;10.062;2022-12-07T08:03:29;3.93;;;1.93;;
9972;SDS011;5027;53.560;10.062;2022-12-07T08:05:56;4.57;;;1.80;;
9972;SDS011;5027;53.560;10.062;2022-12-07T08:08:23;4.23;;;1.70;;
9972;SDS011;5027;53.560;10.062;2022-12-07T08:10:49;4.13;;;2.00;;
9972;SDS011;5027;53.560;10.062;2022-12-07T08:13:16;3.73;;;1.70;;
9972;SDS011;5027;53.560;10.062;2022-12-07T08:15:44;4.50;;;1.77;;
9972;SDS011;5027;53.560;10.062;2022-12-07T08:18:13;3.43;;;1.70;;
9972;SDS011;5027;53.560;10.062;2022-12-07T08:20:41;6.20;;;1.93;;
9972;SDS011;5027;53.560;10.062;2022-12-07T08:23:08;4.00;;;2.27;;
9972;SDS011;5027;53.560;10.062;2022-12-07T08:25:36;4.30;;;1.87;;
9972;SDS011;5027;53.560;10.062;2022-12-07T08:28:03;5.33;;;1.97;;
9972;SDS011;5027;53.560;10.062;2022-12-07T08:30:30;5.00;;;2.10;;
9972;SDS011;5027;53.560;10.062;2022-12-07T08:32:57;2.97;;;2.03;;
9972;SDS011;5027;53.560;10.062;2022-12-07T08:35:24;9.53;;;6.53;;
9972;SDS011;5027;53.560;10.062;2022-12-07T08:37:51;4.57;;;1.80;;
9972;SDS011;5027;53.560;10.062;2022-12-07T08:40:17;1.77;;;1.33;;
9972;SDS011;5027;53.560;10.062;2022-12-07T08:42:48;1.23;;;0.93;;
9972;SDS011;5027;53.560;10.062;2022-12-07T08:45:16;1.43;;;1.20;;
9972;SDS011;5027;53.560;10.062;2022-12-07T08:48:02;4.03;;;1.83;;
9972;SDS011;5027;53.560;10.062;2022-12-07T08:50:34;4.83;;;2.00;;
9972;SDS011;5027;53.560;10.062;2022-12-07T08:53:03;4.53;;;2.03;;
9972;SDS011;5027;53.560;10.062;2022-12-07T08:55:31;5.63;;;1.80;;
9972;SDS011;5027;53.560;10.062;2022-12-07T08:57:59;9.77;;;2.13;;
9972;SDS011;5027;53.560;10.062;2022-12-07T09:00:28;4.13;;;2.27;;
9972;SDS011;5027;53.560;10.062;2022-12-07T09:02:54;4.07;;;1.90;;
9972;SDS011;5027;53.560;10.062;2022-12-07T09:05:21;6.50;;;1.70;;
9972;SDS011;5027;53.560;10.062;2022-12-07T09:07:49;6.47;;;2.20;;
9972;SDS011;5027;53.560;10.062;2022-12-07T09:10:18;4.17;;;1.80;;
9972;SDS011;5027;53.560;10.062;2022-12-07T09:12:45;6.53;;;2.10;;
9972;SDS011;5027;53.560;10.062;2022-12-07T09:15:12;5.50;;;1.80;;
9972;SDS011;5027;53.560;10.062;2022-12-07T09:17:38;7.70;;;2.40;;
9972;SDS011;5027;53.560;10.062;2022-12-07T09:20:05;4.67;;;2.00;;
9972;SDS011;5027;53.560;10.062;2022-12-07T09:22:32;4.20;;;2.10;;
9972;SDS011;5027;53.560;10.062;2022-12-07T09:24:59;8.20;;;2.70;;
9972;SDS011;5027;53.560;10.062;2022-12-07T09:27:27;4.17;;;2.37;;
9972;SDS011;5027;53.560;10.062;2022-12-07T09:29:54;7.13;;;2.40;;
9972;SDS011;5027;53.560;10.062;2022-12-07T09:32:21;5.23;;;2.40;;
9972;SDS011;5027;53.560;10.062;2022-12-07T09:34:48;3.60;;;1.90;;
9972;SDS011;5027;53.560;10.062;2022-12-07T09:37:16;4.90;;;2.27;;
9972;SDS011;5027;53.560;10.062;2022-12-07T09:39:42;5.53;;;2.33;;
9972;SDS011;5027;53.560;10.062;2022-12-07T09:42:26;6.17;;;2.10;;
9972;SDS011;5027;53.560;10.062;2022-12-07T09:45:10;3.30;;;1.67;;
9972;SDS011;5027;53.560;10.062;2022-12-07T09:47:42;3.90;;;2.00;;
9972;SDS011;5027;53.560;10.062;2022-12-07T09:50:16;5.50;;;1.80;;
9972;SDS011;5027;53.560;10.062;2022-12-07T09:52:49;5.80;;;1.83;;
9972;SDS011;5027;53.560;10.062;2022-12-07T09:55:22;6.17;;;2.10;;
9972;SDS011;5027;53.560;10.062;2022-12-07T09:57:53;9.47;;;2.30;;
9972;SDS011;5027;53.560;10.062;2022-12-07T10:00:21;7.10;;;2.57;;
9972;SDS011;5027;53.560;10.062;2022-12-07T10:02:51;7.73;;;2.33;;
9972;SDS011;5027;53.560;10.062;2022-12-07T10:05:34;6.57;;;2.30;;
9972;SDS011;5027;53.560;10.062;2022-12-07T10:08:07;6.77;;;2.50;;
9972;SDS011;5027;53.560;10.062;2022-12-07T10:10:37;8.43;;;2.40;;
9972;SDS011;5027;53.560;10.062;2022-12-07T10:13:08;5.27;;;2.20;;
9972;SDS011;5027;53.560;10.062;2022-12-07T10:18:32;7.83;;;2.47;;
9972;SDS011;5027;53.560;10.062;2022-12-07T10:23:42;7.07;;;2.40;;
9972;SDS011;5027;53.560;10.062;2022-12-07T10:26:29;6.77;;;2.20;;
9972;SDS011;5027;53.560;10.062;2022-12-07T10:29:01;4.63;;;1.83;;
9972;SDS011;5027;53.560;10.062;2022-12-07T10:32:34;8.77;;;2.30;;
9972;SDS011;5027;53.560;10.062;2022-12-07T10:34:41;4.53;;;2.00;;
9972;SDS011;5027;53.560;10.062;2022-12-07T10:37:19;4.30;;;1.60;;
9972;SDS011;5027;53.560;10.062;2022-12-07T10:39:53;5.40;;;2.13;;
9972;SDS011;5027;53.560;10.062;2022-12-07T10:42:24;7.80;;;2.77;;
9972;SDS011;5027;53.560;10.062;2022-12-07T10:45:09;7.37;;;2.30;;
9972;SDS011;5027;53.560;10.062;2022-12-07T10:47:36;7.03;;;2.33;;
9972;SDS011;5027;53.560;10.062;2022-12-07T10:50:23;4.53;;;1.93;;
9972;SDS011;5027;53.560;10.062;2022-12-07T10:58:43;4.20;;;1.80;;
9972;SDS011;5027;53.560;10.062;2022-12-07T11:01:24;7.43;;;3.20;;
9972;SDS011;5027;53.560;10.062;2022-12-07T11:06:47;7.63;;;2.40;;
9972;SDS011;5027;53.560;10.062;2022-12-07T11:18:31;5.53;;;2.10;;
9972;SDS011;5027;53.560;10.062;2022-12-07T11:23:52;6.37;;;2.10;;
9972;SDS011;5027;53.560;10.062;2022-12-07T11:29:13;7.30;;;2.03;;
9972;SDS011;5027;53.560;10.062;2022-12-07T11:37:25;4.57;;;2.00;;
9972;SDS011;5027;53.560;10.062;2022-12-07T11:40:20;7.07;;;2.70;;
9972;SDS011;5027;53.560;10.062;2022-12-07T11:43:01;8.27;;;2.47;;
9972;SDS011;5027;53.560;10.062;2022-12-07T11:45:33;8.40;;;2.37;;
9972;SDS011;5027;53.560;10.062;2022-12-07T11:48:02;5.13;;;2.27;;
9972;SDS011;5027;53.560;10.062;2022-12-07T11:50:42;9.33;;;2.70;;
9972;SDS011;5027;53.560;10.062;2022-12-07T11:53:46;6.37;;;2.17;;
9972;SDS011;5027;53.560;10.062;2022-12-07T11:56:13;10.57;;;2.93;;
9972;SDS011;5027;53.560;10.062;2022-12-07T12:06:40;6.70;;;2.17;;
9972;SDS011;5027;53.560;10.062;2022-12-07T12:09:14;7.67;;;2.47;;
9972;SDS011;5027;53.560;10.062;2022-12-07T12:15:18;7.30;;;2.03;;
9972;SDS011;5027;53.560;10.062;2022-12-07T12:18:09;8.90;;;2.57;;
9972;SDS011;5027;53.560;10.062;2022-12-07T12:20:55;8.90;;;2.63;;
9972;SDS011;5027;53.560;10.062;2022-12-07T12:23:35;11.67;;;2.33;;
9972;SDS011;5027;53.560;10.062;2022-12-07T12:26:07;7.30;;;2.43;;
9972;SDS011;5027;53.560;10.062;2022-12-07T12:28:50;9.20;;;2.03;;
9972;SDS011;5027;53.560;10.062;2022-12-07T12:31:47;4.63;;;1.77;;
9972;SDS011;5027;53.560;10.062;2022-12-07T12:34:38;8.67;;;2.47;;
9972;SDS011;5027;53.560;10.062;2022-12-07T12:42:45;3.53;;;2.10;;
9972;SDS011;5027;53.560;10.062;2022-12-07T12:45:19;9.13;;;2.30;;
9972;SDS011;5027;53.560;10.062;2022-12-07T12:47:55;7.20;;;2.23;;
9972;SDS011;5027;53.560;10.062;2022-12-07T12:50:32;8.37;;;2.20;;
9972;SDS011;5027;53.560;10.062;2022-12-07T12:59:18;6.90;;;2.80;;
9972;SDS011;5027;53.560;10.062;2022-12-07T13:15:42;7.10;;;2.40;;
9972;SDS011;5027;53.560;10.062;2022-12-07T13:29:05;10.43;;;2.67;;
9972;SDS011;5027;53.560;10.062;2022-12-07T13:31:41;5.90;;;1.77;;
9972;SDS011;5027;53.560;10.062;2022-12-07T13:37:30;7.40;;;2.17;;
9972;SDS011;5027;53.560;10.062;2022-12-07T13:40:22;5.97;;;1.90;;
9972;SDS011;5027;53.560;10.062;2022-12-07T13:43:04;6.57;;;2.33;;
9972;SDS011;5027;53.560;10.062;2022-12-07T13:45:55;5.23;;;1.80;;
9972;SDS011;5027;53.560;10.062;2022-12-07T13:48:57;6.47;;;2.20;;
9972;SDS011;5027;53.560;10.062;2022-12-07T13:51:33;10.00;;;2.27;;
9972;SDS011;5027;53.560;10.062;2022-12-07T13:54:10;5.43;;;2.07;;
9972;SDS011;5027;53.560;10.062;2022-12-07T13:56:37;3.60;;;1.50;;
9972;SDS011;5027;53.560;10.062;2022-12-07T13:59:10;5.63;;;1.83;;
9972;SDS011;5027;53.560;10.062;2022-12-07T14:01:44;4.93;;;1.57;;
9972;SDS011;5027;53.560;10.062;2022-12-07T14:04:28;7.83;;;2.07;;
9972;SDS011;5027;53.560;10.062;2022-12-07T14:06:55;3.27;;;1.47;;
9972;SDS011;5027;53.560;10.062;2022-12-07T14:09:24;5.93;;;1.70;;
9972;SDS011;5027;53.560;10.062;2022-12-07T14:11:53;4.70;;;1.80;;
9972;SDS011;5027;53.560;10.062;2022-12-07T14:14:22;1.93;;;1.33;;
9972;SDS011;5027;53.560;10.062;2022-12-07T14:16:59;6.40;;;2.10;;
9972;SDS011;5027;53.560;10.062;2022-12-07T14:22:28;4.27;;;1.90;;
9972;SDS011;5027;53.560;10.062;2022-12-07T14:25:21;6.43;;;1.93;;
9972;SDS011;5027;53.560;10.062;2022-12-07T14:27:59;6.27;;;2.00;;
9972;SDS011;5027;53.560;10.062;2022-12-07T14:30:28;4.97;;;1.87;;
9972;SDS011;5027;53.560;10.062;2022-12-07T14:33:02;3.80;;;1.70;;
9972;SDS011;5027;53.560;10.062;2022-12-07T14:35:30;4.43;;;1.77;;
9972;SDS011;5027;53.560;10.062;2022-12-07T14:37:58;6.13;;;2.10;;
9972;SDS011;5027;53.560;10.062;2022-12-07T14:40:27;6.30;;;2.17;;
9972;SDS011;5027;53.560;10.062;2022-12-07T14:43:04;4.97;;;1.87;;
9972;SDS011;5027;53.560;10.062;2022-12-07T14:45:36;3.50;;;1.83;;
9972;SDS011;5027;53.560;10.062;2022-12-07T14:48:03;9.33;;;1.83;;
9972;SDS011;5027;53.560;10.062;2022-12-07T14:50:51;4.53;;;1.90;;
9972;SDS011;5027;53.560;10.062;2022-12-07T14:53:46;7.80;;;2.13;;
9972;SDS011;5027;53.560;10.062;2022-12-07T14:56:22;6.57;;;2.13;;
9972;SDS011;5027;53.560;10.062;2022-12-07T14:58:51;3.00;;;1.70;;
9972;SDS011;5027;53.560;10.062;2022-12-07T15:01:21;9.03;;;2.20;;
9972;SDS011;5027;53.560;10.062;2022-12-07T15:03:48;4.13;;;1.90;;
9972;SDS011;5027;53.560;10.062;2022-12-07T15:06:15;9.57;;;2.30;;
9972;SDS011;5027;53.560;10.062;2022-12-07T15:08:46;8.70;;;4.27;;
9972;SDS011;5027;53.560;10.062;2022-12-07T15:11:13;8.47;;;3.47;;
9972;SDS011;5027;53.560;10.062;2022-12-07T15:13:53;6.73;;;2.87;;
9972;SDS011;5027;53.560;10.062;2022-12-07T15:16:38;5.40;;;2.80;;
9972;SDS011;5027;53.560;10.062;2022-12-07T15:19:29;6.40;;;2.17;;
9972;SDS011;5027;53.560;10.062;2022-12-07T15:21:58;10.33;;;2.00;;
9972;SDS011;5027;53.560;10.062;2022-12-07T15:24:26;6.73;;;2.30;;
9972;SDS011;5027;53.560;10.062;2022-12-07T15:26:53;7.23;;;2.53;;
9972;SDS011;5027;53.560;10.062;2022-12-07T15:29:20;6.70;;;1.90;;
9972;SDS011;5027;53.560;10.062;2022-12-07T15:31:52;7.10;;;2.07;;
9972;SDS011;5027;53.560;10.062;2022-12-07T15:34:23;8.17;;;2.57;;
9972;SDS011;5027;53.560;10.062;2022-12-07T15:36:51;7.67;;;2.20;;
9972;SDS011;5027;53.560;10.062;2022-12-07T15:39:18;4.47;;;1.80;;
9972;SDS011;5027;53.560;10.062;2022-12-07T15:41:45;4.97;;;1.70;;
9972;SDS011;5027;53.560;10.062;2022-12-07T15:44:11;7.63;;;1.80;;
9972;SDS011;5027;53.560;10.062;2022-12-07T15:46:57;4.67;;;1.80;;
9972;SDS011;5027;53.560;10.062;2022-12-07T15:49:24;5.87;;;1.57;;
9972;SDS011;5027;53.560;10.062;2022-12-07T15:51:51;6.43;;;1.90;;
9972;SDS011;5027;53.560;10.062;2022-12-07T15:54:22;8.27;;;1.70;;
9972;SDS011;5027;53.560;10.062;2022-12-07T15:56:50;6.30;;;1.90;;
9972;SDS011;5027;53.560;10.062;2022-12-07T15:59:17;3.50;;;1.40;;
9972;SDS011;5027;53.560;10.062;2022-12-07T16:01:44;6.73;;;2.03;;
9972;SDS011;5027;53.560;10.062;2022-12-07T16:04:11;6.23;;;1.77;;
9972;SDS011;5027;53.560;10.062;2022-12-07T16:06:38;6.93;;;2.13;;
9972;SDS011;5027;53.560;10.062;2022-12-07T16:09:05;3.67;;;1.87;;
9972;SDS011;5027;53.560;10.062;2022-12-07T16:11:32;2.87;;;1.60;;
9972;SDS011;5027;53.560;10.062;2022-12-07T16:13:59;7.00;;;1.90;;
9972;SDS011;5027;53.560;10.062;2022-12-07T16:16:25;3.50;;;1.80;;
9972;SDS011;5027;53.560;10.062;2022-12-07T16:18:53;6.63;;;2.43;;
9972;SDS011;5027;53.560;10.062;2022-12-07T16:21:20;3.93;;;1.90;;
9972;SDS011;5027;53.560;10.062;2022-12-07T16:23:50;3.80;;;2.03;;
9972;SDS011;5027;53.560;10.062;2022-12-07T16:26:18;6.63;;;2.43;;
9972;SDS011;5027;53.560;10.062;2022-12-07T16:28:50;5.73;;;2.13;;
9972;SDS011;5027;53.560;10.062;2022-12-07T16:31:19;7.30;;;2.00;;
9972;SDS011;5027;53.560;10.062;2022-12-07T16:33:48;3.53;;;2.00;;
9972;SDS011;5027;53.560;10.062;2022-12-07T16:36:15;3.93;;;2.30;;
9972;SDS011;5027;53.560;10.062;2022-12-07T16:39:02;5.63;;;2.00;;
9972;SDS011;5027;53.560;10.062;2022-12-07T16:41:30;7.33;;;2.30;;
9972;SDS011;5027;53.560;10.062;2022-12-07T16:46:49;5.23;;;2.27;;
9972;SDS011;5027;53.560;10.062;2022-12-07T16:49:16;6.60;;;3.07;;
9972;SDS011;5027;53.560;10.062;2022-12-07T16:51:42;4.30;;;2.60;;
9972;SDS011;5027;53.560;10.062;2022-12-07T16:54:10;8.20;;;2.83;;
9972;SDS011;5027;53.560;10.062;2022-12-07T16:56:37;7.53;;;3.07;;
9972;SDS011;5027;53.560;10.062;2022-12-07T16:59:04;7.67;;;2.80;;
9972;SDS011;5027;53.560;10.062;2022-12-07T17:01:31;9.90;;;3.70;;
9972;SDS011;5027;53.560;10.062;2022-12-07T17:03:58;5.97;;;2.87;;
9972;SDS011;5027;53.560;10.062;2022-12-07T17:06:26;5.53;;;3.17;;
9972;SDS011;5027;53.560;10.062;2022-12-07T17:08:54;5.77;;;3.20;;
9972;SDS011;5027;53.560;10.062;2022-12-07T17:11:23;8.87;;;4.00;;
9972;SDS011;5027;53.560;10.062;2022-12-07T17:13:51;8.30;;;3.33;;
9972;SDS011;5027;53.560;10.062;2022-12-07T17:16:37;5.67;;;2.47;;
9972;SDS011;5027;53.560;10.062;2022-12-07T17:19:08;8.00;;;2.90;;
9972;SDS011;5027;53.560;10.062;2022-12-07T17:21:36;7.20;;;3.37;;